sensor_id;sensor_type;location;lat;lon;timestamp;P1;durP1;ratioP1;P2;durP2;ratioP2
7289;SDS011;63176;52.678;13.250;2023-07-20T00:02:20;3.20;;;2.83;;
7289;SDS011;63176;52.678;13.250;2023-07-20T00:04:46;6.77;;;2.93;;
7289;SDS011;63176;52.678;13.250;2023-07-20T00:07:11;6.53;;;5.20;;
7289;SDS011;63176;52.678;13.250;2023-07-20T00:09:37;3.20;;;2.90;;
7289;SDS011;63176;52.678;13.250;2023-07-20T00:12:03;3.13;;;2.53;;
7289;SDS011;63176;52.678;13.250;2023-07-20T00:14:28;3.17;;;2.67;;
7289;SDS011;63176;52.678;13.250;2023-07-20T00:16:55;3.83;;;2.40;;
7289;SDS011;63176;52.678;13.250;2023-07-20T00:19:22;4.33;;;3.40;;
7289;SDS011;63176;52.678;13.250;2023-07-20T00:21:51;2.90;;;2.70;;
7289;SDS011;63176;52.678;13.250;2023-07-20T00:24:17;2.83;;;2.50;;
7289;SDS011;63176;52.678;13.250;2023-07-20T00:26:43;3.47;;;3.17;;
7289;SDS011;63176;52.678;13.250;2023-07-20T00:29:09;3.07;;;2.73;;
7289;SDS011;63176;52.678;13.250;2023-07-20T00:31:35;2.20;;;2.10;;
7289;SDS011;63176;52.678;13.250;2023-07-20T00:34:02;3.90;;;2.97;;
7289;SDS011;63176;52.678;13.250;2023-07-20T00:36:28;4.43;;;3.30;;
7289;SDS011;63176;52.678;13.250;2023-07-20T00:38:54;5.03;;;2.93;;
7289;SDS011;63176;52.678;13.250;2023-07-20T00:41:20;3.70;;;3.40;;
7289;SDS011;63176;52.678;13.250;2023-07-20T00:43:45;2.97;;;2.67;;
7289;SDS011;63176;52.678;13.250;2023-07-20T00:46:11;8.30;;;3.27;;
7289;SDS011;63176;52.678;13.250;2023-07-20T00:48:37;4.00;;;3.40;;
7289;SDS011;63176;52.678;13.250;2023-07-20T00:51:03;3.20;;;2.90;;
7289;SDS011;63176;52.678;13.250;2023-07-20T00:53:29;3.40;;;3.10;;
7289;SDS011;63176;52.678;13.250;2023-07-20T00:55:55;3.60;;;3.00;;
7289;SDS011;63176;52.678;13.250;2023-07-20T00:58:21;4.83;;;2.80;;
7289;SDS011;63176;52.678;13.250;2023-07-20T01:00:48;6.70;;;3.00;;
7289;SDS011;63176;52.678;13.250;2023-07-20T01:03:14;2.77;;;2.57;;
7289;SDS011;63176;52.678;13.250;2023-07-20T01:14:11;3.73;;;3.40;;
7289;SDS011;63176;52.678;13.250;2023-07-20T01:16:37;3.90;;;3.00;;
7289;SDS011;63176;52.678;13.250;2023-07-20T01:19:02;3.50;;;3.13;;
7289;SDS011;63176;52.678;13.250;2023-07-20T01:22:15;4.77;;;3.60;;
7289;SDS011;63176;52.678;13.250;2023-07-20T01:24:37;4.03;;;2.90;;
7289;SDS011;63176;52.678;13.250;2023-07-20T01:27:26;3.50;;;3.20;;
7289;SDS011;63176;52.678;13.250;2023-07-20T01:30:15;2.87;;;2.67;;
7289;SDS011;63176;52.678;13.250;2023-07-20T01:32:50;3.10;;;2.80;;
7289;SDS011;63176;52.678;13.250;2023-07-20T01:35:20;6.97;;;3.20;;
7289;SDS011;63176;52.678;13.250;2023-07-20T01:37:52;4.97;;;3.17;;
7289;SDS011;63176;52.678;13.250;2023-07-20T01:40:19;5.13;;;3.00;;
7289;SDS011;63176;52.678;13.250;2023-07-20T01:42:46;3.00;;;2.80;;
7289;SDS011;63176;52.678;13.250;2023-07-20T01:45:12;3.83;;;3.10;;
7289;SDS011;63176;52.678;13.250;2023-07-20T01:47:38;3.47;;;3.17;;
7289;SDS011;63176;52.678;13.250;2023-07-20T01:50:04;5.23;;;3.53;;
7289;SDS011;63176;52.678;13.250;2023-07-20T01:52:30;7.47;;;3.43;;
7289;SDS011;63176;52.678;13.250;2023-07-20T01:54:55;3.57;;;3.27;;
7289;SDS011;63176;52.678;13.250;2023-07-20T01:57:21;3.40;;;3.10;;
7289;SDS011;63176;52.678;13.250;2023-07-20T01:59:47;4.93;;;3.13;;
7289;SDS011;63176;52.678;13.250;2023-07-20T02:02:12;4.17;;;3.00;;
7289;SDS011;63176;52.678;13.250;2023-07-20T02:04:38;4.53;;;3.70;;
7289;SDS011;63176;52.678;13.250;2023-07-20T02:07:03;7.00;;;5.00;;
7289;SDS011;63176;52.678;13.250;2023-07-20T02:09:29;5.93;;;4.77;;
7289;SDS011;63176;52.678;13.250;2023-07-20T02:11:55;9.47;;;5.03;;
7289;SDS011;63176;52.678;13.250;2023-07-20T02:14:21;8.80;;;5.03;;
7289;SDS011;63176;52.678;13.250;2023-07-20T02:16:47;5.17;;;4.57;;
7289;SDS011;63176;52.678;13.250;2023-07-20T02:19:17;5.63;;;5.00;;
7289;SDS011;63176;52.678;13.250;2023-07-20T02:21:43;7.27;;;4.83;;
7289;SDS011;63176;52.678;13.250;2023-07-20T02:24:09;6.93;;;5.43;;
7289;SDS011;63176;52.678;13.250;2023-07-20T02:26:34;6.73;;;6.10;;
7289;SDS011;63176;52.678;13.250;2023-07-20T02:29:00;6.27;;;5.00;;
7289;SDS011;63176;52.678;13.250;2023-07-20T02:31:28;9.33;;;6.03;;
7289;SDS011;63176;52.678;13.250;2023-07-20T02:33:54;10.07;;;5.97;;
7289;SDS011;63176;52.678;13.250;2023-07-20T02:36:20;8.17;;;6.70;;
7289;SDS011;63176;52.678;13.250;2023-07-20T02:38:45;9.23;;;6.63;;
7289;SDS011;63176;52.678;13.250;2023-07-20T02:41:11;8.30;;;7.10;;
7289;SDS011;63176;52.678;13.250;2023-07-20T02:43:38;9.07;;;6.90;;
7289;SDS011;63176;52.678;13.250;2023-07-20T02:46:03;12.50;;;7.00;;
7289;SDS011;63176;52.678;13.250;2023-07-20T02:48:29;10.43;;;7.93;;
7289;SDS011;63176;52.678;13.250;2023-07-20T02:50:54;10.20;;;7.67;;
7289;SDS011;63176;52.678;13.250;2023-07-20T02:53:20;9.37;;;6.70;;
7289;SDS011;63176;52.678;13.250;2023-07-20T02:55:46;12.43;;;8.20;;
7289;SDS011;63176;52.678;13.250;2023-07-20T02:58:12;9.70;;;7.20;;
7289;SDS011;63176;52.678;13.250;2023-07-20T03:00:37;8.47;;;7.20;;
7289;SDS011;63176;52.678;13.250;2023-07-20T03:03:03;8.60;;;5.87;;
7289;SDS011;63176;52.678;13.250;2023-07-20T03:05:28;12.43;;;8.50;;
7289;SDS011;63176;52.678;13.250;2023-07-20T03:07:55;9.30;;;7.30;;
7289;SDS011;63176;52.678;13.250;2023-07-20T03:10:21;9.70;;;7.40;;
7289;SDS011;63176;52.678;13.250;2023-07-20T03:12:46;10.00;;;7.00;;
7289;SDS011;63176;52.678;13.250;2023-07-20T03:15:12;8.70;;;7.60;;
7289;SDS011;63176;52.678;13.250;2023-07-20T03:17:45;10.40;;;7.97;;
7289;SDS011;63176;52.678;13.250;2023-07-20T03:20:10;8.97;;;7.00;;
7289;SDS011;63176;52.678;13.250;2023-07-20T03:22:37;10.67;;;7.23;;
7289;SDS011;63176;52.678;13.250;2023-07-20T03:25:03;12.73;;;8.10;;
7289;SDS011;63176;52.678;13.250;2023-07-20T03:27:29;12.33;;;7.90;;
7289;SDS011;63176;52.678;13.250;2023-07-20T03:29:55;10.20;;;7.83;;
7289;SDS011;63176;52.678;13.250;2023-07-20T03:32:21;12.37;;;7.83;;
7289;SDS011;63176;52.678;13.250;2023-07-20T03:34:46;9.43;;;7.40;;
7289;SDS011;63176;52.678;13.250;2023-07-20T03:37:12;9.73;;;7.70;;
7289;SDS011;63176;52.678;13.250;2023-07-20T03:39:38;11.70;;;7.43;;
7289;SDS011;63176;52.678;13.250;2023-07-20T03:42:04;11.40;;;8.30;;
7289;SDS011;63176;52.678;13.250;2023-07-20T03:44:30;11.03;;;8.77;;
7289;SDS011;63176;52.678;13.250;2023-07-20T03:46:56;11.30;;;8.70;;
7289;SDS011;63176;52.678;13.250;2023-07-20T03:49:21;11.10;;;8.53;;
7289;SDS011;63176;52.678;13.250;2023-07-20T03:51:47;12.13;;;8.27;;
7289;SDS011;63176;52.678;13.250;2023-07-20T03:54:12;7.20;;;6.30;;
7289;SDS011;63176;52.678;13.250;2023-07-20T03:56:38;10.33;;;8.23;;
7289;SDS011;63176;52.678;13.250;2023-07-20T03:59:04;12.53;;;8.80;;
7289;SDS011;63176;52.678;13.250;2023-07-20T04:01:30;12.03;;;8.20;;
7289;SDS011;63176;52.678;13.250;2023-07-20T04:04:04;9.97;;;8.60;;
7289;SDS011;63176;52.678;13.250;2023-07-20T04:06:32;17.90;;;8.43;;
7289;SDS011;63176;52.678;13.250;2023-07-20T04:08:57;9.70;;;7.60;;
7289;SDS011;63176;52.678;13.250;2023-07-20T04:11:23;7.80;;;6.77;;
7289;SDS011;63176;52.678;13.250;2023-07-20T04:13:49;12.03;;;8.30;;
7289;SDS011;63176;52.678;13.250;2023-07-20T04:16:14;10.20;;;7.80;;
7289;SDS011;63176;52.678;13.250;2023-07-20T04:18:40;9.80;;;7.90;;
7289;SDS011;63176;52.678;13.250;2023-07-20T04:21:07;10.53;;;8.53;;
7289;SDS011;63176;52.678;13.250;2023-07-20T04:23:45;14.17;;;7.83;;
7289;SDS011;63176;52.678;13.250;2023-07-20T04:26:10;8.50;;;6.43;;
7289;SDS011;63176;52.678;13.250;2023-07-20T04:28:37;13.73;;;7.43;;
7289;SDS011;63176;52.678;13.250;2023-07-20T04:31:12;10.00;;;7.03;;
7289;SDS011;63176;52.678;13.250;2023-07-20T04:33:38;9.50;;;6.60;;
7289;SDS011;63176;52.678;13.250;2023-07-20T04:36:04;6.53;;;5.93;;
7289;SDS011;63176;52.678;13.250;2023-07-20T04:38:30;10.73;;;6.70;;
7289;SDS011;63176;52.678;13.250;2023-07-20T04:40:56;9.77;;;6.20;;
7289;SDS011;63176;52.678;13.250;2023-07-20T04:43:22;11.73;;;7.37;;
7289;SDS011;63176;52.678;13.250;2023-07-20T04:45:47;6.00;;;5.40;;
7289;SDS011;63176;52.678;13.250;2023-07-20T04:48:14;8.43;;;6.70;;
7289;SDS011;63176;52.678;13.250;2023-07-20T04:50:41;7.47;;;6.67;;
7289;SDS011;63176;52.678;13.250;2023-07-20T04:53:11;10.33;;;7.07;;
7289;SDS011;63176;52.678;13.250;2023-07-20T04:55:40;7.63;;;5.97;;
7289;SDS011;63176;52.678;13.250;2023-07-20T04:58:12;8.60;;;6.13;;
7289;SDS011;63176;52.678;13.250;2023-07-20T05:00:37;7.90;;;6.83;;
7289;SDS011;63176;52.678;13.250;2023-07-20T05:03:03;9.37;;;7.23;;
7289;SDS011;63176;52.678;13.250;2023-07-20T05:05:30;7.97;;;6.33;;
7289;SDS011;63176;52.678;13.250;2023-07-20T05:07:56;8.53;;;6.33;;
7289;SDS011;63176;52.678;13.250;2023-07-20T05:10:22;12.23;;;6.57;;
7289;SDS011;63176;52.678;13.250;2023-07-20T05:12:48;7.90;;;6.37;;
7289;SDS011;63176;52.678;13.250;2023-07-20T05:15:14;8.40;;;5.93;;
7289;SDS011;63176;52.678;13.250;2023-07-20T05:17:40;15.23;;;6.87;;
7289;SDS011;63176;52.678;13.250;2023-07-20T05:20:06;8.33;;;5.20;;
7289;SDS011;63176;52.678;13.250;2023-07-20T05:22:32;8.87;;;6.47;;
7289;SDS011;63176;52.678;13.250;2023-07-20T05:24:58;7.13;;;6.43;;
7289;SDS011;63176;52.678;13.250;2023-07-20T05:27:24;5.40;;;4.90;;
7289;SDS011;63176;52.678;13.250;2023-07-20T05:29:49;7.07;;;5.50;;
7289;SDS011;63176;52.678;13.250;2023-07-20T05:32:15;5.97;;;5.40;;
7289;SDS011;63176;52.678;13.250;2023-07-20T05:34:41;7.30;;;5.97;;
7289;SDS011;63176;52.678;13.250;2023-07-20T05:37:06;7.63;;;5.10;;
7289;SDS011;63176;52.678;13.250;2023-07-20T05:39:32;8.23;;;5.73;;
7289;SDS011;63176;52.678;13.250;2023-07-20T05:41:58;8.50;;;5.93;;
7289;SDS011;63176;52.678;13.250;2023-07-20T05:44:24;6.07;;;5.20;;
7289;SDS011;63176;52.678;13.250;2023-07-20T05:46:49;7.33;;;6.50;;
7289;SDS011;63176;52.678;13.250;2023-07-20T05:49:15;8.97;;;5.50;;
7289;SDS011;63176;52.678;13.250;2023-07-20T05:51:40;15.57;;;7.03;;
7289;SDS011;63176;52.678;13.250;2023-07-20T05:54:06;10.47;;;6.23;;
7289;SDS011;63176;52.678;13.250;2023-07-20T05:56:31;8.90;;;5.77;;
7289;SDS011;63176;52.678;13.250;2023-07-20T05:58:57;6.00;;;5.40;;
7289;SDS011;63176;52.678;13.250;2023-07-20T06:01:23;8.10;;;5.50;;
7289;SDS011;63176;52.678;13.250;2023-07-20T06:03:51;8.30;;;5.60;;
7289;SDS011;63176;52.678;13.250;2023-07-20T06:06:17;7.90;;;5.10;;
7289;SDS011;63176;52.678;13.250;2023-07-20T06:08:43;6.87;;;4.80;;
7289;SDS011;63176;52.678;13.250;2023-07-20T06:11:09;5.70;;;3.97;;
7289;SDS011;63176;52.678;13.250;2023-07-20T06:13:35;7.93;;;3.47;;
7289;SDS011;63176;52.678;13.250;2023-07-20T06:16:00;4.17;;;2.90;;
7289;SDS011;63176;52.678;13.250;2023-07-20T06:18:26;4.90;;;2.83;;
7289;SDS011;63176;52.678;13.250;2023-07-20T06:20:52;4.07;;;3.20;;
7289;SDS011;63176;52.678;13.250;2023-07-20T06:23:19;4.40;;;3.20;;
7289;SDS011;63176;52.678;13.250;2023-07-20T06:25:44;3.13;;;2.40;;
7289;SDS011;63176;52.678;13.250;2023-07-20T06:28:10;2.90;;;2.40;;
7289;SDS011;63176;52.678;13.250;2023-07-20T06:30:36;4.30;;;2.47;;
7289;SDS011;63176;52.678;13.250;2023-07-20T06:33:02;3.40;;;2.70;;
7289;SDS011;63176;52.678;13.250;2023-07-20T06:35:27;3.50;;;2.40;;
7289;SDS011;63176;52.678;13.250;2023-07-20T06:37:53;4.47;;;2.20;;
7289;SDS011;63176;52.678;13.250;2023-07-20T06:40:19;3.20;;;2.90;;
7289;SDS011;63176;52.678;13.250;2023-07-20T06:42:46;2.30;;;1.93;;
7289;SDS011;63176;52.678;13.250;2023-07-20T06:45:12;2.30;;;2.10;;
7289;SDS011;63176;52.678;13.250;2023-07-20T06:47:38;3.80;;;3.50;;
7289;SDS011;63176;52.678;13.250;2023-07-20T06:50:05;1.60;;;1.50;;
7289;SDS011;63176;52.678;13.250;2023-07-20T06:52:34;3.10;;;1.77;;
7289;SDS011;63176;52.678;13.250;2023-07-20T06:55:00;2.50;;;1.50;;
7289;SDS011;63176;52.678;13.250;2023-07-20T06:57:26;2.80;;;1.60;;
7289;SDS011;63176;52.678;13.250;2023-07-20T06:59:51;3.00;;;1.80;;
7289;SDS011;63176;52.678;13.250;2023-07-20T07:02:18;3.40;;;1.63;;
7289;SDS011;63176;52.678;13.250;2023-07-20T07:04:44;2.47;;;1.30;;
7289;SDS011;63176;52.678;13.250;2023-07-20T07:07:10;4.83;;;1.37;;
7289;SDS011;63176;52.678;13.250;2023-07-20T07:09:36;6.50;;;1.17;;
7289;SDS011;63176;52.678;13.250;2023-07-20T07:12:01;1.50;;;1.17;;
7289;SDS011;63176;52.678;13.250;2023-07-20T07:14:28;2.20;;;1.27;;
7289;SDS011;63176;52.678;13.250;2023-07-20T07:16:57;1.00;;;0.93;;
7289;SDS011;63176;52.678;13.250;2023-07-20T07:19:27;3.20;;;1.10;;
7289;SDS011;63176;52.678;13.250;2023-07-20T07:21:53;2.00;;;1.00;;
7289;SDS011;63176;52.678;13.250;2023-07-20T07:24:19;2.60;;;0.90;;
7289;SDS011;63176;52.678;13.250;2023-07-20T07:26:44;1.93;;;0.80;;
7289;SDS011;63176;52.678;13.250;2023-07-20T07:29:10;0.70;;;0.67;;
7289;SDS011;63176;52.678;13.250;2023-07-20T07:31:36;0.60;;;0.60;;
7289;SDS011;63176;52.678;13.250;2023-07-20T07:34:02;2.73;;;0.90;;
7289;SDS011;63176;52.678;13.250;2023-07-20T07:36:28;0.70;;;0.70;;
7289;SDS011;63176;52.678;13.250;2023-07-20T07:38:54;1.77;;;0.80;;
7289;SDS011;63176;52.678;13.250;2023-07-20T07:41:20;0.60;;;0.60;;
7289;SDS011;63176;52.678;13.250;2023-07-20T07:43:46;0.53;;;0.53;;
7289;SDS011;63176;52.678;13.250;2023-07-20T07:46:11;0.80;;;0.70;;
7289;SDS011;63176;52.678;13.250;2023-07-20T07:48:37;0.90;;;0.90;;
7289;SDS011;63176;52.678;13.250;2023-07-20T07:51:03;3.57;;;0.60;;
7289;SDS011;63176;52.678;13.250;2023-07-20T07:53:28;0.60;;;0.53;;
7289;SDS011;63176;52.678;13.250;2023-07-20T07:55:54;0.80;;;0.53;;
7289;SDS011;63176;52.678;13.250;2023-07-20T07:58:21;0.80;;;0.60;;
7289;SDS011;63176;52.678;13.250;2023-07-20T08:00:46;0.73;;;0.70;;
7289;SDS011;63176;52.678;13.250;2023-07-20T08:03:13;0.60;;;0.50;;
7289;SDS011;63176;52.678;13.250;2023-07-20T08:05:38;0.50;;;0.50;;
7289;SDS011;63176;52.678;13.250;2023-07-20T08:08:05;2.80;;;0.87;;
7289;SDS011;63176;52.678;13.250;2023-07-20T08:10:31;4.50;;;0.70;;
7289;SDS011;63176;52.678;13.250;2023-07-20T08:13:02;0.63;;;0.50;;
7289;SDS011;63176;52.678;13.250;2023-07-20T08:15:28;3.40;;;0.60;;
7289;SDS011;63176;52.678;13.250;2023-07-20T08:17:54;8.40;;;0.70;;
7289;SDS011;63176;52.678;13.250;2023-07-20T08:20:21;0.73;;;0.60;;
7289;SDS011;63176;52.678;13.250;2023-07-20T08:22:51;0.60;;;0.40;;
7289;SDS011;63176;52.678;13.250;2023-07-20T08:25:23;0.47;;;0.43;;
7289;SDS011;63176;52.678;13.250;2023-07-20T08:27:48;2.93;;;0.70;;
7289;SDS011;63176;52.678;13.250;2023-07-20T08:30:16;1.17;;;0.50;;
7289;SDS011;63176;52.678;13.250;2023-07-20T08:32:46;0.87;;;0.73;;
7289;SDS011;63176;52.678;13.250;2023-07-20T08:35:12;0.50;;;0.40;;
7289;SDS011;63176;52.678;13.250;2023-07-20T08:37:40;0.67;;;0.50;;
7289;SDS011;63176;52.678;13.250;2023-07-20T08:40:12;0.60;;;0.60;;
7289;SDS011;63176;52.678;13.250;2023-07-20T08:42:42;0.60;;;0.50;;
7289;SDS011;63176;52.678;13.250;2023-07-20T08:45:20;0.60;;;0.60;;
7289;SDS011;63176;52.678;13.250;2023-07-20T08:47:50;0.80;;;0.60;;
7289;SDS011;63176;52.678;13.250;2023-07-20T08:50:19;0.73;;;0.50;;
7289;SDS011;63176;52.678;13.250;2023-07-20T08:52:46;0.80;;;0.60;;
7289;SDS011;63176;52.678;13.250;2023-07-20T08:55:22;1.10;;;0.70;;
7289;SDS011;63176;52.678;13.250;2023-07-20T08:57:56;0.70;;;0.50;;
7289;SDS011;63176;52.678;13.250;2023-07-20T09:00:24;0.73;;;0.57;;
7289;SDS011;63176;52.678;13.250;2023-07-20T09:02:51;0.93;;;0.60;;
7289;SDS011;63176;52.678;13.250;2023-07-20T09:05:25;0.77;;;0.70;;
7289;SDS011;63176;52.678;13.250;2023-07-20T09:08:03;0.73;;;0.73;;
7289;SDS011;63176;52.678;13.250;2023-07-20T09:10:39;2.53;;;0.77;;
7289;SDS011;63176;52.678;13.250;2023-07-20T09:13:15;1.33;;;0.90;;
7289;SDS011;63176;52.678;13.250;2023-07-20T09:15:56;0.70;;;0.70;;
7289;SDS011;63176;52.678;13.250;2023-07-20T09:18:28;1.10;;;0.60;;
7289;SDS011;63176;52.678;13.250;2023-07-20T09:24:28;3.73;;;0.73;;
7289;SDS011;63176;52.678;13.250;2023-07-20T09:27:05;0.73;;;0.70;;
7289;SDS011;63176;52.678;13.250;2023-07-20T09:30:13;0.83;;;0.70;;
7289;SDS011;63176;52.678;13.250;2023-07-20T09:32:43;1.80;;;0.73;;
7289;SDS011;63176;52.678;13.250;2023-07-20T09:35:18;1.27;;;0.70;;
7289;SDS011;63176;52.678;13.250;2023-07-20T09:38:10;0.70;;;0.50;;
7289;SDS011;63176;52.678;13.250;2023-07-20T09:40:50;4.63;;;0.93;;
7289;SDS011;63176;52.678;13.250;2023-07-20T09:43:30;1.67;;;0.60;;
7289;SDS011;63176;52.678;13.250;2023-07-20T09:46:04;1.67;;;0.67;;
7289;SDS011;63176;52.678;13.250;2023-07-20T09:48:57;0.80;;;0.80;;
7289;SDS011;63176;52.678;13.250;2023-07-20T09:51:24;0.60;;;0.50;;
7289;SDS011;63176;52.678;13.250;2023-07-20T09:53:51;0.60;;;0.50;;
7289;SDS011;63176;52.678;13.250;2023-07-20T09:56:20;0.60;;;0.60;;
7289;SDS011;63176;52.678;13.250;2023-07-20T09:58:47;1.00;;;0.40;;
7289;SDS011;63176;52.678;13.250;2023-07-20T10:01:13;0.97;;;0.60;;
7289;SDS011;63176;52.678;13.250;2023-07-20T10:03:45;0.50;;;0.50;;
7289;SDS011;63176;52.678;13.250;2023-07-20T10:06:13;4.53;;;0.40;;
7289;SDS011;63176;52.678;13.250;2023-07-20T10:08:45;2.33;;;0.77;;
7289;SDS011;63176;52.678;13.250;2023-07-20T10:11:12;0.50;;;0.40;;
7289;SDS011;63176;52.678;13.250;2023-07-20T10:13:40;0.50;;;0.40;;
7289;SDS011;63176;52.678;13.250;2023-07-20T10:16:11;0.80;;;0.50;;
7289;SDS011;63176;52.678;13.250;2023-07-20T10:21:17;2.00;;;0.40;;
7289;SDS011;63176;52.678;13.250;2023-07-20T10:23:48;0.93;;;0.50;;
7289;SDS011;63176;52.678;13.250;2023-07-20T10:26:14;1.90;;;0.60;;
7289;SDS011;63176;52.678;13.250;2023-07-20T10:28:40;0.47;;;0.43;;
7289;SDS011;63176;52.678;13.250;2023-07-20T10:31:10;0.70;;;0.70;;
7289;SDS011;63176;52.678;13.250;2023-07-20T10:33:38;1.63;;;0.60;;
7289;SDS011;63176;52.678;13.250;2023-07-20T10:36:04;0.70;;;0.60;;
7289;SDS011;63176;52.678;13.250;2023-07-20T10:41:20;2.20;;;0.40;;
7289;SDS011;63176;52.678;13.250;2023-07-20T10:43:49;0.60;;;0.60;;
7289;SDS011;63176;52.678;13.250;2023-07-20T10:46:33;2.60;;;0.70;;
7289;SDS011;63176;52.678;13.250;2023-07-20T10:49:00;0.70;;;0.57;;
7289;SDS011;63176;52.678;13.250;2023-07-20T10:51:27;0.90;;;0.70;;
7289;SDS011;63176;52.678;13.250;2023-07-20T10:53:54;1.90;;;0.73;;
7289;SDS011;63176;52.678;13.250;2023-07-20T10:56:26;0.50;;;0.50;;
7289;SDS011;63176;52.678;13.250;2023-07-20T10:58:58;0.70;;;0.50;;
7289;SDS011;63176;52.678;13.250;2023-07-20T11:01:29;1.87;;;0.53;;
7289;SDS011;63176;52.678;13.250;2023-07-20T11:03:58;2.93;;;0.60;;
7289;SDS011;63176;52.678;13.250;2023-07-20T11:08:55;2.93;;;0.50;;
7289;SDS011;63176;52.678;13.250;2023-07-20T11:11:39;0.80;;;0.40;;
7289;SDS011;63176;52.678;13.250;2023-07-20T11:18:59;0.60;;;0.60;;
7289;SDS011;63176;52.678;13.250;2023-07-20T11:21:25;1.67;;;0.57;;
7289;SDS011;63176;52.678;13.250;2023-07-20T11:23:52;1.07;;;0.67;;
7289;SDS011;63176;52.678;13.250;2023-07-20T11:26:17;0.83;;;0.50;;
7289;SDS011;63176;52.678;13.250;2023-07-20T11:28:48;0.60;;;0.40;;
7289;SDS011;63176;52.678;13.250;2023-07-20T11:31:17;0.60;;;0.50;;
7289;SDS011;63176;52.678;13.250;2023-07-20T11:33:43;0.50;;;0.50;;
7289;SDS011;63176;52.678;13.250;2023-07-20T11:36:09;0.83;;;0.67;;
7289;SDS011;63176;52.678;13.250;2023-07-20T11:38:35;1.10;;;0.70;;
7289;SDS011;63176;52.678;13.250;2023-07-20T11:41:02;0.80;;;0.70;;
7289;SDS011;63176;52.678;13.250;2023-07-20T11:43:28;0.83;;;0.83;;
7289;SDS011;63176;52.678;13.250;2023-07-20T11:45:55;2.00;;;0.87;;
7289;SDS011;63176;52.678;13.250;2023-07-20T11:48:21;0.77;;;0.77;;
7289;SDS011;63176;52.678;13.250;2023-07-20T11:50:47;2.27;;;0.80;;
7289;SDS011;63176;52.678;13.250;2023-07-20T11:53:13;2.43;;;0.60;;
7289;SDS011;63176;52.678;13.250;2023-07-20T11:55:40;0.80;;;0.60;;
7289;SDS011;63176;52.678;13.250;2023-07-20T11:58:06;1.57;;;0.60;;
7289;SDS011;63176;52.678;13.250;2023-07-20T12:00:33;2.40;;;0.63;;
7289;SDS011;63176;52.678;13.250;2023-07-20T12:03:00;0.80;;;0.60;;
7289;SDS011;63176;52.678;13.250;2023-07-20T12:05:26;1.17;;;0.60;;
7289;SDS011;63176;52.678;13.250;2023-07-20T12:07:52;0.60;;;0.50;;
7289;SDS011;63176;52.678;13.250;2023-07-20T12:10:26;1.57;;;0.70;;
7289;SDS011;63176;52.678;13.250;2023-07-20T12:12:53;0.90;;;0.80;;
7289;SDS011;63176;52.678;13.250;2023-07-20T12:15:20;1.03;;;0.50;;
7289;SDS011;63176;52.678;13.250;2023-07-20T12:17:49;2.60;;;0.73;;
7289;SDS011;63176;52.678;13.250;2023-07-20T12:20:26;1.20;;;0.60;;
7289;SDS011;63176;52.678;13.250;2023-07-20T12:22:55;2.30;;;0.67;;
7289;SDS011;63176;52.678;13.250;2023-07-20T12:25:22;0.70;;;0.50;;
7289;SDS011;63176;52.678;13.250;2023-07-20T12:27:48;1.97;;;0.60;;
7289;SDS011;63176;52.678;13.250;2023-07-20T12:30:14;0.70;;;0.50;;
7289;SDS011;63176;52.678;13.250;2023-07-20T12:32:40;2.80;;;0.70;;
7289;SDS011;63176;52.678;13.250;2023-07-20T12:35:05;0.70;;;0.50;;
7289;SDS011;63176;52.678;13.250;2023-07-20T12:37:31;0.60;;;0.50;;
7289;SDS011;63176;52.678;13.250;2023-07-20T12:39:57;0.50;;;0.40;;
7289;SDS011;63176;52.678;13.250;2023-07-20T12:42:23;1.90;;;0.50;;
7289;SDS011;63176;52.678;13.250;2023-07-20T12:44:49;0.87;;;0.40;;
7289;SDS011;63176;52.678;13.250;2023-07-20T12:47:15;1.27;;;0.60;;
7289;SDS011;63176;52.678;13.250;2023-07-20T12:49:42;0.40;;;0.40;;
7289;SDS011;63176;52.678;13.250;2023-07-20T12:52:10;0.60;;;0.40;;
7289;SDS011;63176;52.678;13.250;2023-07-20T12:54:36;1.80;;;0.47;;
7289;SDS011;63176;52.678;13.250;2023-07-20T12:57:01;2.13;;;0.40;;
7289;SDS011;63176;52.678;13.250;2023-07-20T12:59:28;2.40;;;0.60;;
7289;SDS011;63176;52.678;13.250;2023-07-20T13:01:54;1.27;;;0.50;;
7289;SDS011;63176;52.678;13.250;2023-07-20T13:04:19;0.93;;;0.40;;
7289;SDS011;63176;52.678;13.250;2023-07-20T13:06:45;0.50;;;0.40;;
7289;SDS011;63176;52.678;13.250;2023-07-20T13:09:11;1.33;;;0.50;;
7289;SDS011;63176;52.678;13.250;2023-07-20T13:11:36;0.60;;;0.50;;
7289;SDS011;63176;52.678;13.250;2023-07-20T13:14:02;0.40;;;0.37;;
7289;SDS011;63176;52.678;13.250;2023-07-20T13:16:28;1.33;;;0.50;;
7289;SDS011;63176;52.678;13.250;2023-07-20T13:18:53;0.43;;;0.40;;
7289;SDS011;63176;52.678;13.250;2023-07-20T13:21:19;1.50;;;0.40;;
7289;SDS011;63176;52.678;13.250;2023-07-20T13:23:47;0.60;;;0.50;;
7289;SDS011;63176;52.678;13.250;2023-07-20T13:26:13;1.03;;;0.40;;
7289;SDS011;63176;52.678;13.250;2023-07-20T13:28:40;0.50;;;0.40;;
7289;SDS011;63176;52.678;13.250;2023-07-20T13:31:06;0.90;;;0.50;;
7289;SDS011;63176;52.678;13.250;2023-07-20T13:33:33;0.70;;;0.50;;
7289;SDS011;63176;52.678;13.250;2023-07-20T13:36:00;0.53;;;0.40;;
7289;SDS011;63176;52.678;13.250;2023-07-20T13:38:26;0.83;;;0.50;;
7289;SDS011;63176;52.678;13.250;2023-07-20T13:40:51;0.60;;;0.50;;
7289;SDS011;63176;52.678;13.250;2023-07-20T13:43:17;0.50;;;0.40;;
7289;SDS011;63176;52.678;13.250;2023-07-20T13:45:43;0.80;;;0.50;;
7289;SDS011;63176;52.678;13.250;2023-07-20T13:48:08;0.40;;;0.30;;
7289;SDS011;63176;52.678;13.250;2023-07-20T13:50:34;0.63;;;0.40;;
7289;SDS011;63176;52.678;13.250;2023-07-20T13:53:00;1.93;;;0.97;;
7289;SDS011;63176;52.678;13.250;2023-07-20T13:55:27;1.00;;;0.43;;
7289;SDS011;63176;52.678;13.250;2023-07-20T13:57:53;0.50;;;0.50;;
7289;SDS011;63176;52.678;13.250;2023-07-20T14:00:19;0.60;;;0.50;;
7289;SDS011;63176;52.678;13.250;2023-07-20T14:02:44;0.50;;;0.50;;
7289;SDS011;63176;52.678;13.250;2023-07-20T14:05:10;0.60;;;0.50;;
7289;SDS011;63176;52.678;13.250;2023-07-20T14:07:35;0.50;;;0.40;;
7289;SDS011;63176;52.678;13.250;2023-07-20T14:10:02;0.57;;;0.50;;
7289;SDS011;63176;52.678;13.250;2023-07-20T14:12:28;0.50;;;0.40;;
7289;SDS011;63176;52.678;13.250;2023-07-20T14:14:54;0.40;;;0.40;;
7289;SDS011;63176;52.678;13.250;2023-07-20T14:17:21;1.23;;;0.30;;
7289;SDS011;63176;52.678;13.250;2023-07-20T14:19:46;2.23;;;0.40;;
7289;SDS011;63176;52.678;13.250;2023-07-20T14:22:12;0.50;;;0.40;;
7289;SDS011;63176;52.678;13.250;2023-07-20T14:24:38;2.10;;;0.73;;
7289;SDS011;63176;52.678;13.250;2023-07-20T14:27:03;0.50;;;0.40;;
7289;SDS011;63176;52.678;13.250;2023-07-20T14:29:29;1.93;;;0.50;;
7289;SDS011;63176;52.678;13.250;2023-07-20T14:31:56;0.57;;;0.40;;
7289;SDS011;63176;52.678;13.250;2023-07-20T14:34:22;0.40;;;0.30;;
7289;SDS011;63176;52.678;13.250;2023-07-20T14:36:48;0.90;;;0.40;;
7289;SDS011;63176;52.678;13.250;2023-07-20T14:39:14;2.70;;;0.50;;
7289;SDS011;63176;52.678;13.250;2023-07-20T14:41:40;0.70;;;0.70;;
7289;SDS011;63176;52.678;13.250;2023-07-20T14:44:06;0.50;;;0.40;;
7289;SDS011;63176;52.678;13.250;2023-07-20T14:46:31;0.40;;;0.30;;
7289;SDS011;63176;52.678;13.250;2023-07-20T14:48:57;2.53;;;0.40;;
7289;SDS011;63176;52.678;13.250;2023-07-20T14:51:23;0.70;;;0.43;;
7289;SDS011;63176;52.678;13.250;2023-07-20T14:53:49;0.80;;;0.40;;
7289;SDS011;63176;52.678;13.250;2023-07-20T14:56:15;0.60;;;0.40;;
7289;SDS011;63176;52.678;13.250;2023-07-20T14:58:40;0.50;;;0.40;;
7289;SDS011;63176;52.678;13.250;2023-07-20T15:01:06;1.13;;;0.50;;
7289;SDS011;63176;52.678;13.250;2023-07-20T15:03:31;0.40;;;0.40;;
7289;SDS011;63176;52.678;13.250;2023-07-20T15:05:57;3.03;;;0.47;;
7289;SDS011;63176;52.678;13.250;2023-07-20T15:08:23;0.63;;;0.60;;
7289;SDS011;63176;52.678;13.250;2023-07-20T15:10:49;2.03;;;0.50;;
7289;SDS011;63176;52.678;13.250;2023-07-20T15:13:14;1.30;;;0.67;;